sensor_id;sensor_type;location;lat;lon;timestamp;P1;durP1;ratioP1;P2;durP2;ratioP2
14272;SDS011;7220;49.450;11.052;2022-09-28T00:02:16;2.95;;;2.17;;
14272;SDS011;7220;49.450;11.052;2022-09-28T00:06:18;2.33;;;2.00;;
14272;SDS011;7220;49.450;11.052;2022-09-28T00:10:20;2.28;;;1.88;;
14272;SDS011;7220;49.450;11.052;2022-09-28T00:14:23;3.40;;;3.10;;
14272;SDS011;7220;49.450;11.052;2022-09-28T00:18:24;2.22;;;2.03;;
14272;SDS011;7220;49.450;11.052;2022-09-28T00:22:24;3.60;;;1.92;;
14272;SDS011;7220;49.450;11.052;2022-09-28T00:26:28;4.78;;;2.65;;
14272;SDS011;7220;49.450;11.052;2022-09-28T00:30:30;2.28;;;1.98;;
14272;SDS011;7220;49.450;11.052;2022-09-28T00:34:31;2.83;;;1.50;;
14272;SDS011;7220;49.450;11.052;2022-09-28T00:38:33;4.82;;;1.63;;
14272;SDS011;7220;49.450;11.052;2022-09-28T00:42:34;2.17;;;1.92;;
14272;SDS011;7220;49.450;11.052;2022-09-28T00:46:34;4.55;;;1.90;;
14272;SDS011;7220;49.450;11.052;2022-09-28T00:50:35;4.60;;;2.15;;
14272;SDS011;7220;49.450;11.052;2022-09-28T00:54:37;2.25;;;1.55;;
14272;SDS011;7220;49.450;11.052;2022-09-28T00:58:40;1.83;;;1.63;;
14272;SDS011;7220;49.450;11.052;2022-09-28T01:02:43;2.65;;;1.60;;
14272;SDS011;7220;49.450;11.052;2022-09-28T01:06:44;2.83;;;1.80;;
14272;SDS011;7220;49.450;11.052;2022-09-28T01:10:46;2.80;;;1.50;;
14272;SDS011;7220;49.450;11.052;2022-09-28T01:14:47;2.08;;;1.40;;
14272;SDS011;7220;49.450;11.052;2022-09-28T01:27:43;2.38;;;1.50;;
14272;SDS011;7220;49.450;11.052;2022-09-28T01:32:05;2.00;;;1.65;;
14272;SDS011;7220;49.450;11.052;2022-09-28T01:36:11;1.70;;;1.60;;
14272;SDS011;7220;49.450;11.052;2022-09-28T01:40:18;3.42;;;2.03;;
14272;SDS011;7220;49.450;11.052;2022-09-28T01:44:21;2.47;;;1.90;;
14272;SDS011;7220;49.450;11.052;2022-09-28T01:48:26;3.80;;;1.80;;
14272;SDS011;7220;49.450;11.052;2022-09-28T01:52:36;5.32;;;1.92;;
14272;SDS011;7220;49.450;11.052;2022-09-28T01:56:44;4.95;;;1.88;;
14272;SDS011;7220;49.450;11.052;2022-09-28T02:00:51;3.30;;;2.00;;
14272;SDS011;7220;49.450;11.052;2022-09-28T02:05:00;2.10;;;1.90;;
14272;SDS011;7220;49.450;11.052;2022-09-28T02:09:09;2.00;;;1.80;;
14272;SDS011;7220;49.450;11.052;2022-09-28T02:13:17;1.75;;;1.65;;
14272;SDS011;7220;49.450;11.052;2022-09-28T02:17:42;3.35;;;2.03;;
14272;SDS011;7220;49.450;11.052;2022-09-28T02:25:54;2.53;;;2.05;;
14272;SDS011;7220;49.450;11.052;2022-09-28T02:30:01;3.33;;;1.92;;
14272;SDS011;7220;49.450;11.052;2022-09-28T02:34:04;3.45;;;1.40;;
14272;SDS011;7220;49.450;11.052;2022-09-28T02:38:04;1.92;;;1.30;;
14272;SDS011;7220;49.450;11.052;2022-09-28T02:42:14;1.42;;;1.33;;
14272;SDS011;7220;49.450;11.052;2022-09-28T02:46:22;1.42;;;1.33;;
14272;SDS011;7220;49.450;11.052;2022-09-28T02:59:38;3.15;;;1.63;;
14272;SDS011;7220;49.450;11.052;2022-09-28T03:03:49;2.63;;;1.65;;
14272;SDS011;7220;49.450;11.052;2022-09-28T03:07:58;2.13;;;1.70;;
14272;SDS011;7220;49.450;11.052;2022-09-28T03:12:03;2.83;;;1.40;;
14272;SDS011;7220;49.450;11.052;2022-09-28T03:16:12;1.92;;;1.52;;
14272;SDS011;7220;49.450;11.052;2022-09-28T03:20:15;2.92;;;1.40;;
14272;SDS011;7220;49.450;11.052;2022-09-28T03:24:16;1.98;;;1.77;;
14272;SDS011;7220;49.450;11.052;2022-09-28T03:28:16;2.33;;;1.55;;
14272;SDS011;7220;49.450;11.052;2022-09-28T03:32:16;2.38;;;1.63;;
14272;SDS011;7220;49.450;11.052;2022-09-28T03:36:16;1.87;;;1.50;;
14272;SDS011;7220;49.450;11.052;2022-09-28T03:40:17;2.15;;;1.55;;
14272;SDS011;7220;49.450;11.052;2022-09-28T03:44:17;2.27;;;1.40;;
14272;SDS011;7220;49.450;11.052;2022-09-28T03:48:19;2.22;;;1.58;;
14272;SDS011;7220;49.450;11.052;2022-09-28T03:52:33;1.30;;;1.20;;
14272;SDS011;7220;49.450;11.052;2022-09-28T03:56:33;3.23;;;1.70;;
14272;SDS011;7220;49.450;11.052;2022-09-28T04:00:33;3.17;;;1.95;;
14272;SDS011;7220;49.450;11.052;2022-09-28T04:04:33;2.43;;;1.90;;
14272;SDS011;7220;49.450;11.052;2022-09-28T04:08:34;1.80;;;1.67;;
14272;SDS011;7220;49.450;11.052;2022-09-28T04:12:34;3.90;;;1.77;;
14272;SDS011;7220;49.450;11.052;2022-09-28T04:16:34;2.03;;;1.90;;
14272;SDS011;7220;49.450;11.052;2022-09-28T04:20:35;3.20;;;1.83;;
14272;SDS011;7220;49.450;11.052;2022-09-28T04:24:35;2.58;;;2.00;;
14272;SDS011;7220;49.450;11.052;2022-09-28T04:28:35;3.60;;;2.27;;
14272;SDS011;7220;49.450;11.052;2022-09-28T04:32:54;3.03;;;2.10;;
14272;SDS011;7220;49.450;11.052;2022-09-28T04:36:54;5.03;;;2.60;;
14272;SDS011;7220;49.450;11.052;2022-09-28T04:40:55;3.22;;;2.25;;
14272;SDS011;7220;49.450;11.052;2022-09-28T04:44:55;3.15;;;2.85;;
14272;SDS011;7220;49.450;11.052;2022-09-28T04:48:57;4.70;;;2.80;;
14272;SDS011;7220;49.450;11.052;2022-09-28T04:52:59;5.30;;;3.00;;
14272;SDS011;7220;49.450;11.052;2022-09-28T04:57:00;4.80;;;3.47;;
14272;SDS011;7220;49.450;11.052;2022-09-28T05:01:03;4.55;;;2.92;;
14272;SDS011;7220;49.450;11.052;2022-09-28T05:05:05;4.82;;;3.28;;
14272;SDS011;7220;49.450;11.052;2022-09-28T05:09:06;4.18;;;3.40;;
14272;SDS011;7220;49.450;11.052;2022-09-28T05:13:08;3.58;;;3.17;;
14272;SDS011;7220;49.450;11.052;2022-09-28T05:17:09;7.28;;;4.43;;
14272;SDS011;7220;49.450;11.052;2022-09-28T05:21:10;10.13;;;3.90;;
14272;SDS011;7220;49.450;11.052;2022-09-28T05:25:12;6.22;;;3.88;;
14272;SDS011;7220;49.450;11.052;2022-09-28T05:29:12;5.03;;;3.70;;
14272;SDS011;7220;49.450;11.052;2022-09-28T05:33:12;5.17;;;3.73;;
14272;SDS011;7220;49.450;11.052;2022-09-28T05:37:12;4.90;;;3.40;;
14272;SDS011;7220;49.450;11.052;2022-09-28T05:41:13;5.45;;;3.75;;
14272;SDS011;7220;49.450;11.052;2022-09-28T05:45:13;6.57;;;3.63;;
14272;SDS011;7220;49.450;11.052;2022-09-28T05:49:14;6.35;;;3.70;;
14272;SDS011;7220;49.450;11.052;2022-09-28T05:53:14;3.73;;;3.10;;
14272;SDS011;7220;49.450;11.052;2022-09-28T05:57:14;4.03;;;2.60;;
14272;SDS011;7220;49.450;11.052;2022-09-28T06:01:15;5.75;;;2.97;;
14272;SDS011;7220;49.450;11.052;2022-09-28T06:05:15;4.45;;;2.67;;
14272;SDS011;7220;49.450;11.052;2022-09-28T06:09:15;3.50;;;2.40;;
14272;SDS011;7220;49.450;11.052;2022-09-28T06:13:16;3.35;;;2.38;;
14272;SDS011;7220;49.450;11.052;2022-09-28T06:17:16;5.47;;;2.63;;
14272;SDS011;7220;49.450;11.052;2022-09-28T06:21:16;4.30;;;2.37;;
14272;SDS011;7220;49.450;11.052;2022-09-28T06:25:17;4.70;;;2.38;;
14272;SDS011;7220;49.450;11.052;2022-09-28T06:29:17;3.92;;;3.03;;
14272;SDS011;7220;49.450;11.052;2022-09-28T06:33:18;2.60;;;2.20;;
14272;SDS011;7220;49.450;11.052;2022-09-28T06:37:18;2.30;;;2.00;;
14272;SDS011;7220;49.450;11.052;2022-09-28T06:41:19;2.70;;;1.93;;
14272;SDS011;7220;49.450;11.052;2022-09-28T06:45:20;2.10;;;1.90;;
14272;SDS011;7220;49.450;11.052;2022-09-28T06:49:24;2.17;;;1.90;;
14272;SDS011;7220;49.450;11.052;2022-09-28T06:53:28;2.25;;;2.00;;
14272;SDS011;7220;49.450;11.052;2022-09-28T06:57:28;2.17;;;1.45;;
14272;SDS011;7220;49.450;11.052;2022-09-28T07:01:28;2.10;;;1.65;;
14272;SDS011;7220;49.450;11.052;2022-09-28T07:05:29;2.22;;;1.40;;
14272;SDS011;7220;49.450;11.052;2022-09-28T07:09:33;1.60;;;1.50;;
14272;SDS011;7220;49.450;11.052;2022-09-28T07:13:34;2.38;;;1.40;;
14272;SDS011;7220;49.450;11.052;2022-09-28T07:17:34;3.20;;;1.57;;
14272;SDS011;7220;49.450;11.052;2022-09-28T07:21:35;3.05;;;1.58;;
14272;SDS011;7220;49.450;11.052;2022-09-28T07:25:35;2.08;;;1.50;;
14272;SDS011;7220;49.450;11.052;2022-09-28T07:29:39;1.80;;;1.67;;
14272;SDS011;7220;49.450;11.052;2022-09-28T07:33:40;3.20;;;1.77;;
14272;SDS011;7220;49.450;11.052;2022-09-28T07:37:40;1.90;;;1.73;;
14272;SDS011;7220;49.450;11.052;2022-09-28T07:41:40;2.73;;;1.80;;
14272;SDS011;7220;49.450;11.052;2022-09-28T07:45:42;2.25;;;1.90;;
14272;SDS011;7220;49.450;11.052;2022-09-28T07:49:43;2.63;;;1.48;;
14272;SDS011;7220;49.450;11.052;2022-09-28T07:53:43;1.85;;;1.52;;
14272;SDS011;7220;49.450;11.052;2022-09-28T07:57:43;2.50;;;1.40;;
14272;SDS011;7220;49.450;11.052;2022-09-28T08:01:46;1.98;;;1.70;;
14272;SDS011;7220;49.450;11.052;2022-09-28T08:05:48;1.98;;;1.30;;
14272;SDS011;7220;49.450;11.052;2022-09-28T08:09:48;1.02;;;1.02;;
14272;SDS011;7220;49.450;11.052;2022-09-28T08:13:49;2.27;;;1.33;;
14272;SDS011;7220;49.450;11.052;2022-09-28T08:17:51;1.23;;;1.10;;
14272;SDS011;7220;49.450;11.052;2022-09-28T08:21:52;1.55;;;1.45;;
14272;SDS011;7220;49.450;11.052;2022-09-28T08:25:53;1.05;;;1.05;;
14272;SDS011;7220;49.450;11.052;2022-09-28T08:29:53;1.90;;;1.15;;
14272;SDS011;7220;49.450;11.052;2022-09-28T08:33:53;1.47;;;1.37;;
14272;SDS011;7220;49.450;11.052;2022-09-28T08:37:55;1.60;;;1.50;;
14272;SDS011;7220;49.450;11.052;2022-09-28T08:42:11;1.30;;;1.20;;
14272;SDS011;7220;49.450;11.052;2022-09-28T08:46:15;1.75;;;1.38;;
14272;SDS011;7220;49.450;11.052;2022-09-28T08:50:22;1.50;;;1.40;;
14272;SDS011;7220;49.450;11.052;2022-09-28T08:58:44;2.85;;;1.50;;
14272;SDS011;7220;49.450;11.052;2022-09-28T09:02:51;1.73;;;1.63;;
14272;SDS011;7220;49.450;11.052;2022-09-28T09:24:53;1.88;;;1.48;;
14272;SDS011;7220;49.450;11.052;2022-09-28T09:46:22;1.70;;;1.60;;
14272;SDS011;7220;49.450;11.052;2022-09-28T09:50:53;1.70;;;1.30;;
14272;SDS011;7220;49.450;11.052;2022-09-28T09:55:04;2.22;;;1.60;;
14272;SDS011;7220;49.450;11.052;2022-09-28T09:59:16;1.35;;;1.20;;
14272;SDS011;7220;49.450;11.052;2022-09-28T10:03:33;3.05;;;1.40;;
14272;SDS011;7220;49.450;11.052;2022-09-28T10:07:40;1.52;;;1.00;;
14272;SDS011;7220;49.450;11.052;2022-09-28T10:11:42;1.45;;;1.20;;
14272;SDS011;7220;49.450;11.052;2022-09-28T10:15:44;1.20;;;1.10;;
14272;SDS011;7220;49.450;11.052;2022-09-28T10:19:50;1.25;;;1.15;;
14272;SDS011;7220;49.450;11.052;2022-09-28T10:23:57;1.10;;;1.00;;
14272;SDS011;7220;49.450;11.052;2022-09-28T10:27:59;1.42;;;1.10;;
14272;SDS011;7220;49.450;11.052;2022-09-28T10:32:01;1.20;;;1.00;;
14272;SDS011;7220;49.450;11.052;2022-09-28T10:36:17;2.58;;;1.10;;
14272;SDS011;7220;49.450;11.052;2022-09-28T10:53:19;1.20;;;1.10;;
14272;SDS011;7220;49.450;11.052;2022-09-28T10:57:27;1.52;;;1.10;;
14272;SDS011;7220;49.450;11.052;2022-09-28T11:01:32;6.03;;;1.40;;
14272;SDS011;7220;49.450;11.052;2022-09-28T11:05:33;3.60;;;1.85;;
14272;SDS011;7220;49.450;11.052;2022-09-28T11:09:37;1.25;;;0.95;;
14272;SDS011;7220;49.450;11.052;2022-09-28T11:13:48;1.95;;;0.98;;
14272;SDS011;7220;49.450;11.052;2022-09-28T11:17:50;1.05;;;0.90;;
14272;SDS011;7220;49.450;11.052;2022-09-28T11:21:50;1.30;;;1.20;;
14272;SDS011;7220;49.450;11.052;2022-09-28T11:26:05;2.22;;;1.23;;
14272;SDS011;7220;49.450;11.052;2022-09-28T11:34:44;2.08;;;1.10;;
14272;SDS011;7220;49.450;11.052;2022-09-28T11:43:12;0.85;;;0.82;;
14272;SDS011;7220;49.450;11.052;2022-09-28T11:51:47;1.13;;;1.00;;
14272;SDS011;7220;49.450;11.052;2022-09-28T11:55:50;1.55;;;1.10;;
14272;SDS011;7220;49.450;11.052;2022-09-28T12:00:03;1.10;;;1.00;;
14272;SDS011;7220;49.450;11.052;2022-09-28T12:04:08;1.50;;;1.08;;
14272;SDS011;7220;49.450;11.052;2022-09-28T12:08:23;2.17;;;1.20;;
14272;SDS011;7220;49.450;11.052;2022-09-28T12:16:42;1.50;;;1.00;;
14272;SDS011;7220;49.450;11.052;2022-09-28T12:20:46;2.03;;;1.13;;
14272;SDS011;7220;49.450;11.052;2022-09-28T12:24:51;1.48;;;1.15;;
14272;SDS011;7220;49.450;11.052;2022-09-28T12:28:56;1.50;;;1.00;;
14272;SDS011;7220;49.450;11.052;2022-09-28T12:33:07;1.08;;;0.90;;
14272;SDS011;7220;49.450;11.052;2022-09-28T12:37:14;1.45;;;1.08;;
14272;SDS011;7220;49.450;11.052;2022-09-28T12:54:55;1.40;;;1.00;;
14272;SDS011;7220;49.450;11.052;2022-09-28T12:59:59;1.73;;;1.17;;
14272;SDS011;7220;49.450;11.052;2022-09-28T13:12:43;1.67;;;0.85;;
14272;SDS011;7220;49.450;11.052;2022-09-28T13:16:50;1.40;;;0.93;;
14272;SDS011;7220;49.450;11.052;2022-09-28T13:25:26;1.90;;;1.00;;
14272;SDS011;7220;49.450;11.052;2022-09-28T13:29:30;1.50;;;1.13;;
14272;SDS011;7220;49.450;11.052;2022-09-28T13:33:32;1.48;;;1.00;;
14272;SDS011;7220;49.450;11.052;2022-09-28T13:37:35;2.90;;;1.15;;
14272;SDS011;7220;49.450;11.052;2022-09-28T13:41:36;0.90;;;0.80;;
14272;SDS011;7220;49.450;11.052;2022-09-28T13:45:41;1.52;;;1.20;;
14272;SDS011;7220;49.450;11.052;2022-09-28T13:54:23;3.20;;;1.10;;
14272;SDS011;7220;49.450;11.052;2022-09-28T13:58:35;3.33;;;1.00;;
14272;SDS011;7220;49.450;11.052;2022-09-28T14:07:24;1.20;;;0.90;;
14272;SDS011;7220;49.450;11.052;2022-09-28T14:15:59;1.55;;;1.15;;
14272;SDS011;7220;49.450;11.052;2022-09-28T14:20:18;1.95;;;1.17;;
14272;SDS011;7220;49.450;11.052;2022-09-28T14:29:28;2.35;;;1.23;;
14272;SDS011;7220;49.450;11.052;2022-09-28T14:33:30;1.55;;;1.10;;
14272;SDS011;7220;49.450;11.052;2022-09-28T14:37:32;2.97;;;1.00;;
14272;SDS011;7220;49.450;11.052;2022-09-28T14:41:53;2.38;;;1.58;;
14272;SDS011;7220;49.450;11.052;2022-09-28T14:54:19;1.52;;;1.10;;
14272;SDS011;7220;49.450;11.052;2022-09-28T14:58:23;2.10;;;1.02;;
14272;SDS011;7220;49.450;11.052;2022-09-28T15:02:30;3.80;;;1.75;;
14272;SDS011;7220;49.450;11.052;2022-09-28T15:06:50;2.03;;;1.40;;
14272;SDS011;7220;49.450;11.052;2022-09-28T15:10:50;3.95;;;1.60;;
14272;SDS011;7220;49.450;11.052;2022-09-28T15:19:05;1.50;;;1.02;;
14272;SDS011;7220;49.450;11.052;2022-09-28T15:23:37;1.17;;;1.10;;
14272;SDS011;7220;49.450;11.052;2022-09-28T15:27:39;2.13;;;1.20;;
14272;SDS011;7220;49.450;11.052;2022-09-28T15:31:40;2.85;;;1.50;;
14272;SDS011;7220;49.450;11.052;2022-09-28T15:35:41;2.03;;;1.30;;
14272;SDS011;7220;49.450;11.052;2022-09-28T15:39:44;3.60;;;1.52;;
14272;SDS011;7220;49.450;11.052;2022-09-28T15:43:48;2.63;;;1.60;;
14272;SDS011;7220;49.450;11.052;2022-09-28T15:48:16;1.65;;;1.38;;
14272;SDS011;7220;49.450;11.052;2022-09-28T15:52:34;2.75;;;2.10;;
14272;SDS011;7220;49.450;11.052;2022-09-28T15:56:52;3.60;;;1.52;;
14272;SDS011;7220;49.450;11.052;2022-09-28T16:14:17;3.10;;;2.00;;
14272;SDS011;7220;49.450;11.052;2022-09-28T16:18:20;2.30;;;1.90;;
14272;SDS011;7220;49.450;11.052;2022-09-28T16:22:22;2.85;;;1.83;;
14272;SDS011;7220;49.450;11.052;2022-09-28T16:26:33;4.35;;;1.90;;
14272;SDS011;7220;49.450;11.052;2022-09-28T16:30:37;2.92;;;1.70;;
14272;SDS011;7220;49.450;11.052;2022-09-28T16:39:13;2.22;;;2.03;;
14272;SDS011;7220;49.450;11.052;2022-09-28T16:43:25;3.88;;;2.55;;
14272;SDS011;7220;49.450;11.052;2022-09-28T16:47:27;2.63;;;2.42;;
14272;SDS011;7220;49.450;11.052;2022-09-28T16:51:32;4.45;;;2.70;;
14272;SDS011;7220;49.450;11.052;2022-09-28T16:55:33;4.03;;;2.50;;
14272;SDS011;7220;49.450;11.052;2022-09-28T16:59:33;5.25;;;2.90;;
14272;SDS011;7220;49.450;11.052;2022-09-28T17:03:37;3.40;;;3.10;;
14272;SDS011;7220;49.450;11.052;2022-09-28T17:07:38;4.15;;;3.05;;
14272;SDS011;7220;49.450;11.052;2022-09-28T17:11:39;4.75;;;3.38;;
14272;SDS011;7220;49.450;11.052;2022-09-28T17:15:40;5.07;;;3.40;;
14272;SDS011;7220;49.450;11.052;2022-09-28T17:19:41;10.68;;;5.60;;
14272;SDS011;7220;49.450;11.052;2022-09-28T17:23:42;4.10;;;3.70;;
14272;SDS011;7220;49.450;11.052;2022-09-28T17:27:43;3.72;;;2.70;;
14272;SDS011;7220;49.450;11.052;2022-09-28T17:31:45;5.35;;;2.45;;
14272;SDS011;7220;49.450;11.052;2022-09-28T17:35:46;2.08;;;1.88;;
14272;SDS011;7220;49.450;11.052;2022-09-28T17:39:47;5.63;;;2.70;;
14272;SDS011;7220;49.450;11.052;2022-09-28T17:43:47;3.13;;;2.47;;
14272;SDS011;7220;49.450;11.052;2022-09-28T17:47:48;2.85;;;2.40;;
14272;SDS011;7220;49.450;11.052;2022-09-28T17:51:48;3.75;;;2.65;;
14272;SDS011;7220;49.450;11.052;2022-09-28T17:55:49;3.88;;;2.67;;
14272;SDS011;7220;49.450;11.052;2022-09-28T17:59:50;4.00;;;3.08;;
14272;SDS011;7220;49.450;11.052;2022-09-28T18:03:50;4.22;;;3.10;;
14272;SDS011;7220;49.450;11.052;2022-09-28T18:07:50;4.10;;;3.53;;
14272;SDS011;7220;49.450;11.052;2022-09-28T18:11:57;6.00;;;3.55;;
14272;SDS011;7220;49.450;11.052;2022-09-28T18:15:59;4.55;;;3.30;;
14272;SDS011;7220;49.450;11.052;2022-09-28T18:20:00;6.00;;;3.90;;
14272;SDS011;7220;49.450;11.052;2022-09-28T18:24:00;6.30;;;3.75;;
14272;SDS011;7220;49.450;11.052;2022-09-28T18:28:00;5.30;;;4.07;;
14272;SDS011;7220;49.450;11.052;2022-09-28T18:32:01;6.63;;;3.93;;
14272;SDS011;7220;49.450;11.052;2022-09-28T18:36:02;4.70;;;3.55;;
14272;SDS011;7220;49.450;11.052;2022-09-28T18:40:03;4.80;;;3.72;;
14272;SDS011;7220;49.450;11.052;2022-09-28T18:44:05;6.18;;;3.70;;
14272;SDS011;7220;49.450;11.052;2022-09-28T18:48:05;4.20;;;3.65;;
14272;SDS011;7220;49.450;11.052;2022-09-28T18:52:06;3.88;;;3.47;;
14272;SDS011;7220;49.450;11.052;2022-09-28T18:56:11;5.07;;;3.50;;
14272;SDS011;7220;49.450;11.052;2022-09-28T19:00:13;4.75;;;4.07;;
14272;SDS011;7220;49.450;11.052;2022-09-28T19:04:14;4.85;;;4.15;;
14272;SDS011;7220;49.450;11.052;2022-09-28T19:08:14;4.30;;;3.90;;
14272;SDS011;7220;49.450;11.052;2022-09-28T19:12:15;5.63;;;4.35;;
14272;SDS011;7220;49.450;11.052;2022-09-28T19:16:17;6.80;;;4.10;;
14272;SDS011;7220;49.450;11.052;2022-09-28T19:20:19;4.88;;;4.18;;
14272;SDS011;7220;49.450;11.052;2022-09-28T19:24:20;5.50;;;3.80;;
14272;SDS011;7220;49.450;11.052;2022-09-28T19:28:21;6.50;;;4.00;;
14272;SDS011;7220;49.450;11.052;2022-09-28T19:32:21;5.00;;;4.18;;
14272;SDS011;7220;49.450;11.052;2022-09-28T19:36:22;4.57;;;4.07;;
14272;SDS011;7220;49.450;11.052;2022-09-28T19:40:24;5.57;;;4.50;;
14272;SDS011;7220;49.450;11.052;2022-09-28T19:44:25;6.27;;;5.50;;
14272;SDS011;7220;49.450;11.052;2022-09-28T19:48:27;7.20;;;5.25;;
14272;SDS011;7220;49.450;11.052;2022-09-28T19:52:28;4.80;;;4.30;;
14272;SDS011;7220;49.450;11.052;2022-09-28T19:56:28;5.73;;;4.60;;
14272;SDS011;7220;49.450;11.052;2022-09-28T20:00:31;7.15;;;5.38;;
14272;SDS011;7220;49.450;11.052;2022-09-28T20:04:32;6.03;;;4.85;;
14272;SDS011;7220;49.450;11.052;2022-09-28T20:08:32;4.97;;;4.47;;
14272;SDS011;7220;49.450;11.052;2022-09-28T20:12:33;4.63;;;4.15;;
14272;SDS011;7220;49.450;11.052;2022-09-28T20:16:34;4.80;;;4.03;;
14272;SDS011;7220;49.450;11.052;2022-09-28T20:20:35;4.95;;;4.45;;
14272;SDS011;7220;49.450;11.052;2022-09-28T20:24:35;5.10;;;4.60;;
14272;SDS011;7220;49.450;11.052;2022-09-28T20:28:36;6.28;;;4.88;;
14272;SDS011;7220;49.450;11.052;2022-09-28T20:32:37;7.13;;;5.10;;
14272;SDS011;7220;49.450;11.052;2022-09-28T20:36:38;5.65;;;5.03;;
14272;SDS011;7220;49.450;11.052;2022-09-28T20:40:43;8.70;;;4.88;;
14272;SDS011;7220;49.450;11.052;2022-09-28T20:44:43;8.95;;;5.68;;
14272;SDS011;7220;49.450;11.052;2022-09-28T20:48:44;5.50;;;4.97;;
14272;SDS011;7220;49.450;11.052;2022-09-28T20:52:44;6.20;;;5.18;;
14272;SDS011;7220;49.450;11.052;2022-09-28T20:56:44;7.13;;;5.03;;
14272;SDS011;7220;49.450;11.052;2022-09-28T21:00:47;6.05;;;5.20;;
14272;SDS011;7220;49.450;11.052;2022-09-28T21:04:47;6.30;;;5.70;;
14272;SDS011;7220;49.450;11.052;2022-09-28T21:08:47;6.43;;;5.35;;
14272;SDS011;7220;49.450;11.052;2022-09-28T21:12:48;6.35;;;5.43;;
14272;SDS011;7220;49.450;11.052;2022-09-28T21:16:51;6.05;;;4.97;;
14272;SDS011;7220;49.450;11.052;2022-09-28T21:20:52;8.07;;;5.30;;
14272;SDS011;7220;49.450;11.052;2022-09-28T21:24:52;6.93;;;5.15;;
14272;SDS011;7220;49.450;11.052;2022-09-28T21:33:03;9.20;;;6.40;;
14272;SDS011;7220;49.450;11.052;2022-09-28T21:37:04;10.35;;;7.38;;
14272;SDS011;7220;49.450;11.052;2022-09-28T21:41:04;11.38;;;7.60;;
14272;SDS011;7220;49.450;11.052;2022-09-28T21:45:04;13.05;;;8.25;;
14272;SDS011;7220;49.450;11.052;2022-09-28T21:49:06;12.57;;;8.00;;
14272;SDS011;7220;49.450;11.052;2022-09-28T21:53:07;9.07;;;7.85;;
14272;SDS011;7220;49.450;11.052;2022-09-28T21:57:07;10.43;;;8.00;;
14272;SDS011;7220;49.450;11.052;2022-09-28T22:01:12;11.07;;;7.63;;
14272;SDS011;7220;49.450;11.052;2022-09-28T22:05:15;8.60;;;7.40;;
14272;SDS011;7220;49.450;11.052;2022-09-28T22:09:16;9.43;;;7.35;;
14272;SDS011;7220;49.450;11.052;2022-09-28T22:13:16;8.13;;;7.25;;
14272;SDS011;7220;49.450;11.052;2022-09-28T22:17:16;9.27;;;7.38;;
14272;SDS011;7220;49.450;11.052;2022-09-28T22:21:18;8.63;;;7.57;;
14272;SDS011;7220;49.450;11.052;2022-09-28T22:25:28;8.05;;;6.88;;
14272;SDS011;7220;49.450;11.052;2022-09-28T22:29:28;10.07;;;7.55;;
14272;SDS011;7220;49.450;11.052;2022-09-28T22:33:29;10.57;;;8.00;;
14272;SDS011;7220;49.450;11.052;2022-09-28T22:37:29;10.13;;;7.75;;
14272;SDS011;7220;49.450;11.052;2022-09-28T22:41:30;9.20;;;7.93;;
14272;SDS011;7220;49.450;11.052;2022-09-28T22:45:31;14.57;;;9.98;;
14272;SDS011;7220;49.450;11.052;2022-09-28T22:49:31;14.95;;;9.70;;
14272;SDS011;7220;49.450;11.052;2022-09-28T22:53:32;15.10;;;9.67;;
14272;SDS011;7220;49.450;11.052;2022-09-28T22:57:33;16.58;;;10.30;;
14272;SDS011;7220;49.450;11.052;2022-09-28T23:01:33;25.88;;;13.80;;
14272;SDS011;7220;49.450;11.052;2022-09-28T23:05:34;26.80;;;13.88;;
14272;SDS011;7220;49.450;11.052;2022-09-28T23:09:34;24.85;;;13.35;;
14272;SDS011;7220;49.450;11.052;2022-09-28T23:13:34;14.10;;;9.48;;
14272;SDS011;7220;49.450;11.052;2022-09-28T23:17:36;8.27;;;6.80;;
14272;SDS011;7220;49.450;11.052;2022-09-28T23:21:36;9.48;;;7.68;;
14272;SDS011;7220;49.450;11.052;2022-09-28T23:25:37;10.75;;;6.90;;
14272;SDS011;7220;49.450;11.052;2022-09-28T23:29:37;12.85;;;7.55;;
14272;SDS011;7220;49.450;11.052;2022-09-28T23:33:45;8.82;;;7.00;;
14272;SDS011;7220;49.450;11.052;2022-09-28T23:37:48;8.90;;;6.75;;
14272;SDS011;7220;49.450;11.052;2022-09-28T23:41:49;8.93;;;7.20;;
14272;SDS011;7220;49.450;11.052;2022-09-28T23:45:49;8.77;;;7.10;;
14272;SDS011;7220;49.450;11.052;2022-09-28T23:49:50;8.48;;;6.75;;
14272;SDS011;7220;49.450;11.052;2022-09-28T23:53:50;9.90;;;7.05;;
14272;SDS011;7220;49.450;11.052;2022-09-28T23:57:51;8.93;;;6.63;;
